Map

Track Data

SID SEASON NUMBER BASIN SUBBASIN NAME ISO_TIME NATURE LAT LON WMO_WIND WMO_PRES WMO_AGENCY TRACK_TYPE DIST2LAND LANDFALL IFLAG USA_AGENCY USA_ATCF_ID USA_LAT USA_LON USA_RECORD USA_STATUS USA_WIND USA_PRES USA_SSHS USA_R34_NE USA_R34_SE USA_R34_SW USA_R34_NW USA_R50_NE USA_R50_SE USA_R50_SW USA_R50_NW USA_R64_NE USA_R64_SE USA_R64_SW USA_R64_NW USA_POCI USA_ROCI USA_RMW USA_EYE TOKYO_LAT TOKYO_LON TOKYO_GRADE TOKYO_WIND TOKYO_PRES TOKYO_R50_DIR TOKYO_R50_LONG TOKYO_R50_SHORT TOKYO_R30_DIR TOKYO_R30_LONG TOKYO_R30_SHORT TOKYO_LAND CMA_LAT CMA_LON CMA_CAT CMA_WIND CMA_PRES HKO_LAT HKO_LON HKO_CAT HKO_WIND HKO_PRES NEWDELHI_LAT NEWDELHI_LON NEWDELHI_GRADE NEWDELHI_WIND NEWDELHI_PRES NEWDELHI_CI NEWDELHI_DP NEWDELHI_POCI REUNION_LAT REUNION_LON REUNION_TYPE REUNION_WIND REUNION_PRES REUNION_TNUM REUNION_CI REUNION_RMW REUNION_R34_NE REUNION_R34_SE REUNION_R34_SW REUNION_R34_NW REUNION_R50_NE REUNION_R50_SE REUNION_R50_SW REUNION_R50_NW REUNION_R64_NE REUNION_R64_SE REUNION_R64_SW REUNION_R64_NW BOM_LAT BOM_LON BOM_TYPE BOM_WIND BOM_PRES BOM_TNUM BOM_CI BOM_RMW BOM_R34_NE BOM_R34_SE BOM_R34_SW BOM_R34_NW BOM_R50_NE BOM_R50_SE BOM_R50_SW BOM_R50_NW BOM_R64_NE BOM_R64_SE BOM_R64_SW BOM_R64_NW BOM_ROCI BOM_POCI BOM_EYE BOM_POS_METHOD BOM_PRES_METHOD NADI_LAT NADI_LON NADI_CAT NADI_WIND NADI_PRES WELLINGTON_LAT WELLINGTON_LON WELLINGTON_WIND WELLINGTON_PRES DS824_LAT DS824_LON DS824_STAGE DS824_WIND DS824_PRES TD9636_LAT TD9636_LON TD9636_STAGE TD9636_WIND TD9636_PRES TD9635_LAT TD9635_LON TD9635_WIND TD9635_PRES TD9635_ROCI NEUMANN_LAT NEUMANN_LON NEUMANN_CLASS NEUMANN_WIND NEUMANN_PRES MLC_LAT MLC_LON MLC_CLASS MLC_WIND MLC_PRES USA_GUST BOM_GUST BOM_GUST_PER REUNION_GUST REUNION_GUST_PER USA_SEAHGT USA_SEARAD_NE USA_SEARAD_SE USA_SEARAD_SW USA_SEARAD_NW STORM_SPEED STORM_DIR
1966118N08088 1966 26 NI BB NOT_NAMED 1966-04-28 03:00:00 NR 7.80000 87.8000 main 657 630 __________O___ -1 7.80000 87.8000 1 10 321
1966118N08088 1966 26 NI BB NOT_NAMED 1966-04-28 06:00:00 TS 8.17112 87.5001 main 631 601 O________OP___ jtwc_io IO011966 8.20000 87.5000 -1 8.20000 87.5000 TC 25 8.14223 87.5002 1 9 318
1966118N08088 1966 26 NI BB NOT_NAMED 1966-04-28 09:00:00 TS 8.48754 87.1658 main 603 566 P________PP___ IO011966 8.49508 87.1476 -1 8.49508 87.1476 TC 25 8.47750 87.1902 1 9 313
1966118N08088 1966 26 NI BB NOT_NAMED 1966-04-28 12:00:00 TS 8.79961 86.8240 main 566 544 O________OP___ jtwc_io IO011966 8.80000 86.8000 -1 8.80000 86.8000 TC 25 8.79902 86.8601 1 9 312
1966118N08088 1966 26 NI BB NOT_NAMED 1966-04-28 15:00:00 TS 9.10996 86.4716 main 544 514 P________PO___ IO011966 9.11494 86.4575 -1 9.11494 86.4575 TC 25 9.10000 86.5000 1 9 310
1966118N08088 1966 26 NI BB NOT_NAMED 1966-04-28 18:00:00 TS 9.39140 86.1023 main 514 484 O________OP___ jtwc_io IO011966 9.40000 86.1000 -1 9.40000 86.1000 TC 25 9.37420 86.1070 1 9 304
1966118N08088 1966 26 NI BB NOT_NAMED 1966-04-28 21:00:00 TS 9.62092 85.6967 main 484 454 P________PP___ IO011966 9.62252 85.6925 -1 9.62252 85.6925 TC 25 9.61773 85.7051 1 9 298
1966118N08088 1966 26 NI BB NOT_NAMED 1966-04-29 00:00:00 TS 9.80912 85.3086 main 454 429 O________OP___ jtwc_io IO011966 9.80000 85.3000 -1 9.80000 85.3000 TC 25 9.82736 85.3257 1 8 297
1966118N08088 1966 26 NI BB NOT_NAMED 1966-04-29 03:00:00 TS 9.97665 84.9750 main 434 409 P________PO___ IO011966 9.96498 84.9625 -1 9.96498 84.9625 TC 25 10.0000 85.0000 1 7 297
1966118N08088 1966 26 NI BB NOT_NAMED 1966-04-29 06:00:00 TS 10.1106 84.7170 main 409 395 O________OP___ jtwc_io IO011966 10.1000 84.7000 -1 10.1000 84.7000 TC 25 10.1317 84.7510 1 5 299
1966118N08088 1966 26 NI BB NOT_NAMED 1966-04-29 09:00:00 TS 10.2149 84.5332 main 395 392 P________PP___ IO011966 10.2075 84.5200 -1 10.2075 84.5200 TC 25 10.2298 84.5597 1 4 302
1966118N08088 1966 26 NI BB NOT_NAMED 1966-04-29 12:00:00 TS 10.3043 84.4045 main 392 383 O________OP___ jtwc_io IO011966 10.3000 84.4000 -1 10.3000 84.4000 TC 25 10.3130 84.4136 1 3 307
1966118N08088 1966 26 NI BB NOT_NAMED 1966-04-29 15:00:00 TS 10.3950 84.2900 main 389 380 P________PO___ IO011966 10.3925 84.2850 -1 10.3925 84.2850 TC 30 10.4000 84.3000 1 3 317
1966118N08088 1966 26 NI BB NOT_NAMED 1966-04-29 18:00:00 TS 10.4991 84.2162 main 386 386 O________OP___ jtwc_io IO011966 10.5000 84.2000 -1 10.5000 84.2000 TC 35 10.4973 84.2487 1 3 335
1966118N08088 1966 26 NI BB NOT_NAMED 1966-04-29 21:00:00 TS 10.6299 84.1773 main 391 389 P________PP___ IO011966 10.6425 84.1575 -1 10.6425 84.1575 TC 50 10.6046 84.2169 1 3 341
1966118N08088 1966 26 NI BB NOT_NAMED 1966-04-30 00:00:00 TS 10.7782 84.1172 main 395 393 O________OP___ jtwc_io IO011966 10.8000 84.1000 -1 10.8000 84.1000 TC 65 10.7346 84.1517 1 3 330
1966118N08088 1966 26 NI BB NOT_NAMED 1966-04-30 03:00:00 TS 10.9183 84.0066 main 393 385 P________PO___ IO011966 10.9274 84.0098 -1 10.9274 84.0098 TC 65 10.9000 84.0000 4 5 315
1966118N08088 1966 26 NI BB NOT_NAMED 1966-04-30 06:00:00 TS 11.1168 83.7755 main 385 369 O________OP___ jtwc_io IO011966 11.1000 83.8000 -1 11.1000 83.8000 TC 65 11.1505 83.7264 4 8 309
1966118N08088 1966 26 NI BB NOT_NAMED 1966-04-30 09:00:00 TS 11.4149 83.3929 main 369 307 P________PP___ IO011966 11.4075 83.4102 -1 11.4075 83.4102 TC 65 11.4298 83.3582 4 10 304
1966118N08088 1966 26 NI BB NOT_NAMED 1966-04-30 12:00:00 TS 11.6980 82.9036 main 307 248 O________OP___ jtwc_io IO011966 11.7000 82.9000 -1 11.7000 82.9000 TC 65 11.6941 82.9108 4 11 294
1966118N08088 1966 26 NI BB NOT_NAMED 1966-04-30 15:00:00 TS 11.8583 82.3816 main 248 186 P________PO___ IO011966 11.8374 82.3724 -1 11.8374 82.3724 TC 50 11.9000 82.4000 4 11 282
1966118N08088 1966 26 NI BB NOT_NAMED 1966-04-30 18:00:00 TS 11.9286 81.8163 main 186 132 O________OP___ jtwc_io IO011966 11.9000 81.8000 -1 11.9000 81.8000 TC 35 11.9859 81.8488 4 11 276
1966118N08088 1966 26 NI BB NOT_NAMED 1966-04-30 21:00:00 TS 11.9801 81.2197 main 122 69 P________PP___ IO011966 11.9649 81.2075 -1 11.9649 81.2075 TC 30 12.0103 81.2442 4 12 274
1966118N08088 1966 26 NI BB NOT_NAMED 1966-05-01 00:00:00 TS 12.0015 80.6058 main 69 10 O________OP___ jtwc_io IO011966 12.0000 80.6000 -1 12.0000 80.6000 TC 25 12.0046 80.6175 4 12 271
1966118N08088 1966 26 NI BB NOT_NAMED 1966-05-01 03:00:00 TS 11.9999 79.9949 main 10 0 P________PO___ IO011966 11.9999 79.9924 -1 11.9999 79.9924 TC 25 12.0000 80.0000 1 12 270
1966118N08088 1966 26 NI BB NOT_NAMED 1966-05-01 06:00:00 TS 12.0021 79.4009 main 0 0 O________OP___ jtwc_io IO011966 12.0000 79.4000 -1 12.0000 79.4000 TC 25 12.0062 79.4028 1 11 272
1966118N08088 1966 26 NI BB NOT_NAMED 1966-05-01 09:00:00 TS 12.0316 78.8265 main 0 0 P________PP___ IO011966 12.0349 78.8275 -1 12.0349 78.8275 TC 25 12.0250 78.8245 1 11 275
1966118N08088 1966 26 NI BB NOT_NAMED 1966-05-01 12:00:00 TS 12.0938 78.2947 main 0 0 O________OP___ jtwc_io IO011966 12.1000 78.3000 -1 12.1000 78.3000 TC 25 12.0813 78.2840 1 10 278
1966118N08088 1966 26 NI AS NOT_NAMED 1966-05-01 15:00:00 TS 12.1749 77.8133 main 0 0 P________PO___ IO011966 12.1624 77.8199 -1 12.1624 77.8199 TC 25 12.2000 77.8000 1 9 285
1966118N08088 1966 26 NI AS NOT_NAMED 1966-05-01 18:00:00 TS 12.3244 77.4001 main 0 0 O________OP___ jtwc_io IO011966 12.3000 77.4000 -1 12.3000 77.4000 TC 25 12.3731 77.4003 1 9 298
1966118N08088 1966 26 NI AS NOT_NAMED 1966-05-01 21:00:00 TS 12.5697 77.0414 main 0 0 P________PP___ IO011966 12.5474 77.0349 -1 12.5474 77.0349 TC 25 12.6142 77.0543 1 9 311
1966118N08088 1966 26 NI AS NOT_NAMED 1966-05-02 00:00:00 TS 12.9077 76.7104 main 0 0 O________OP___ jtwc_io IO011966 12.9000 76.7000 -1 12.9000 76.7000 TC 25 12.9232 76.7312 1 10 319
1966118N08088 1966 26 NI AS NOT_NAMED 1966-05-02 03:00:00 TS 13.3083 76.3716 main 0 0 P________PO___ IO011966 13.3124 76.3573 -1 13.3124 76.3573 TC 25 13.3000 76.4000 1 11 322
1966118N08088 1966 26 NI AS NOT_NAMED 1966-05-02 06:00:00 TS 13.7934 75.9930 main 0 0 O________OP___ jtwc_io IO011966 13.8000 76.0000 -1 13.8000 76.0000 TC 25 13.7802 75.9790 1 13 324
1966118N08088 1966 26 NI AS NOT_NAMED 1966-05-02 09:00:00 TS 14.3485 75.5831 main 0 0 P________PP___ IO011966 14.3650 75.6001 -1 14.3650 75.6001 TC 25 14.3154 75.5492 1 13 324
1966118N08088 1966 26 NI AS NOT_NAMED 1966-05-02 12:00:00 TS 14.8809 75.1815 main 0 0 O________OP___ jtwc_io IO011966 14.9000 75.2000 -1 14.9000 75.2000 TC 25 14.8428 75.1446 1 12 322
1966118N08088 1966 26 NI AS NOT_NAMED 1966-05-02 15:00:00 TS 15.3017 74.8083 main 0 0 P________PO___ IO011966 15.3025 74.8124 -1 15.3025 74.8124 TC 25 15.3000 74.8000 1 10 318
1966118N08088 1966 26 NI AS NOT_NAMED 1966-05-02 18:00:00 TS 15.5944 74.5157 main 0 0 O________OP___ jtwc_io IO011966 15.6000 74.5000 -1 15.6000 74.5000 TC 25 15.5833 74.5471 1 7 317
1966118N08088 1966 26 NI AS NOT_NAMED 1966-05-02 21:00:00 TS 15.8031 74.3278 main 0 0 P________PP___ IO011966 15.8074 74.3123 -1 15.8074 74.3123 TC 25 15.7945 74.3587 1 5 323
1966118N08088 1966 26 NI AS NOT_NAMED 1966-05-03 00:00:00 TS 15.9945 74.2054 main 0 0 O________OP___ jtwc_io IO011966 16.0000 74.2000 -1 16.0000 74.2000 TC 25 15.9835 74.2161 1 5 334
1966118N08088 1966 26 NI AS NOT_NAMED 1966-05-03 03:00:00 TS 16.2516 74.0999 main 0 0 P________PO___ IO011966 16.2775 74.0999 -1 16.2775 74.0999 TC 25 16.2000 74.1000 1 6 339
1966118N08088 1966 26 NI AS NOT_NAMED 1966-05-03 06:00:00 TS 16.5822 73.9754 main 0 0 O________OP___ jtwc_io IO011966 16.6000 74.0000 -1 16.6000 74.0000 TC 25 16.5465 73.9261 1 8 338
1966118N08088 1966 26 NI AS NOT_NAMED 1966-05-03 09:00:00 TS 16.9458 73.8120 main 0 0 P________PP___ IO011966 16.9575 73.8277 -1 16.9575 73.8277 TC 25 16.9223 73.7807 1 8 340
1966118N08088 1966 26 NI AS NOT_NAMED 1966-05-03 12:00:00 TS 17.2957 73.6983 main 0 0 O________OP___ jtwc_io IO011966 17.3000 73.7000 -1 17.3000 73.7000 TC 25 17.2870 73.6948 1 7 350
1966118N08088 1966 26 NI AS NOT_NAMED 1966-05-03 15:00:00 TS 17.5866 73.6933 main 0 0 P________PO___ IO011966 17.5799 73.6899 -1 17.5799 73.6899 TC 25 17.6000 73.7000 1 5 11
1966118N08088 1966 26 NI AS NOT_NAMED 1966-05-03 18:00:00 TS 17.8038 73.8023 main 0 0 O________OP___ jtwc_io IO011966 17.8000 73.8000 -1 17.8000 73.8000 TC 25 17.8114 73.8069 1 5 38
1966118N08088 1966 26 NI AS NOT_NAMED 1966-05-03 21:00:00 TS 17.9708 74.0108 main 0 0 P________PP___ IO011966 17.9725 74.0125 -1 17.9725 74.0125 TC 25 17.9673 74.0073 1 6 58
1966118N08088 1966 26 NI AS NOT_NAMED 1966-05-04 00:00:00 TS 18.0965 74.2930 main 0 0 O________OP___ jtwc_io IO011966 18.1000 74.3000 -1 18.1000 74.3000 TC 25 18.0895 74.2790 1 6 67
1966118N08088 1966 26 NI AS NOT_NAMED 1966-05-04 03:00:00 TS 18.1999 74.5851 main 0 0 P________PO___ IO011966 18.1999 74.5776 -1 18.1999 74.5776 TC 25 18.2000 74.6000 1 6 71
1966118N08088 1966 26 NI AS NOT_NAMED 1966-05-04 06:00:00 TS 18.3067 74.9203 main 0 0 O________OP___ jtwc_io IO011966 18.3000 74.9000 -1 18.3000 74.9000 TC 25 18.3166 74.9507 1 7 71
1966118N08088 1966 26 NI AS NOT_NAMED 1966-05-04 09:00:00 TS 18.4390 75.2993 main 0 0 P________PP___ IO011966 18.4377 75.2823 -1 18.4377 75.2823 TC 25 18.4407 75.3221 1 8 69
1966118N08088 1966 26 NI AS NOT_NAMED 1966-05-04 12:00:00 TS 18.5847 75.7037 main 0 0 O________OP___ jtwc_io IO011966 18.6000 75.7000 -1 18.6000 75.7000 TC 25 18.5694 75.7074 1 8 71
1966118N08088 1966 26 NI AS NOT_NAMED 1966-05-04 15:00:00 NR 18.7000 76.1000 main 0 __________O___ IO011966 -1 TC 18.7000 76.1000 1 8 73

About IBTrACS Database

This database is a web-friendly format of International Best Track Archive for Climate Stewardship (IBTrACS), a global best track data archive curated by NOAA dating back to 1842.

Updated: 2021-12-06